createdAt,value
2018-06-22T00:00:30.714Z,66.87
2018-06-22T00:03:02.598Z,67.12
2018-06-22T00:05:34.992Z,66.45
2018-06-22T00:08:11.389Z,65.23
2018-06-22T00:10:46.596Z,65.40
2018-06-22T00:13:23.902Z,66.82
2018-06-22T00:16:02.650Z,63.83
2018-06-22T00:18:38.250Z,64.35
2018-06-22T00:21:14.621Z,63.97
2018-06-22T00:23:49.507Z,63.85
2018-06-22T00:26:23.591Z,63.68
2018-06-22T00:28:57.146Z,63.48
2018-06-22T00:31:31.233Z,63.71
2018-06-22T00:34:05.912Z,64.88
2018-06-22T00:36:39.567Z,67.93
2018-06-22T00:39:16.816Z,68.04
2018-06-22T00:41:49.523Z,66.62
2018-06-22T00:44:25.561Z,66.73
2018-06-22T00:46:59.485Z,66.28
2018-06-22T00:49:38.361Z,66.96
2018-06-22T00:52:13.354Z,65.28
2018-06-22T00:54:47.902Z,63.71
2018-06-22T00:57:20.793Z,67.40
2018-06-22T01:00:02.954Z,66.88
2018-06-22T01:02:40.833Z,66.48
2018-06-22T01:05:15.795Z,64.52
2018-06-22T01:07:50.493Z,62.76
2018-06-22T01:10:23.833Z,63.07
2018-06-22T01:12:57.349Z,63.31
2018-06-22T01:15:33.022Z,63.06
2018-06-22T01:18:07.216Z,63.62
2018-06-22T01:20:41.337Z,65.21
2018-06-22T01:23:17.936Z,64.74
2018-06-22T01:25:53.817Z,67.29
2018-06-22T01:28:25.752Z,63.12
2018-06-22T01:31:00.210Z,66.96
2018-06-22T01:33:35.331Z,64.68
2018-06-22T01:36:10.516Z,65.71
2018-06-22T01:38:48.883Z,66.35
2018-06-22T01:41:26.440Z,65.71
2018-06-22T01:44:03.786Z,69.15
2018-06-22T01:46:36.398Z,67.18
2018-06-22T01:49:11.314Z,67.06
2018-06-22T01:51:45.898Z,68.03
2018-06-22T01:54:22.185Z,69.45
2018-06-22T01:56:57.454Z,66.89
2018-06-22T01:59:30.518Z,65.69
2018-06-22T02:02:07.001Z,66.14
2018-06-22T02:04:41.814Z,65.85
2018-06-22T02:07:16.716Z,63.74
2018-06-22T02:10:03.683Z,64.21
2018-06-22T02:12:39.772Z,63.24
2018-06-22T02:15:18.348Z,61.92
2018-06-22T02:17:51.116Z,62.86
2018-06-22T02:20:23.822Z,62.89
2018-06-22T02:22:56.809Z,63.71
2018-06-22T02:25:28.447Z,63.23
2018-06-22T02:28:01.782Z,63.00
2018-06-22T02:30:33.584Z,60.26
2018-06-22T02:33:04.455Z,61.03
2018-06-22T02:35:40.770Z,59.09
2018-06-22T02:41:06.872Z,59.31
2018-06-22T02:46:25.618Z,60.39
2018-06-22T02:49:11.838Z,61.13
2018-06-22T02:51:50.574Z,61.09
2018-06-22T02:54:26.802Z,61.52
2018-06-22T02:56:57.397Z,61.80
2018-06-22T02:59:28.283Z,62.52
2018-06-22T03:01:59.579Z,61.96
2018-06-22T03:04:30.543Z,62.08
2018-06-22T03:07:04.950Z,62.81
2018-06-22T03:09:38.559Z,62.63
2018-06-22T03:12:09.034Z,63.32
2018-06-22T03:14:39.326Z,62.10
2018-06-22T03:17:10.156Z,62.52
2018-06-22T03:19:40.867Z,62.43
2018-06-22T03:22:12.280Z,62.78
2018-06-22T03:24:45.194Z,63.03
2018-06-22T03:27:16.200Z,62.84
2018-06-22T03:29:49.445Z,62.61
2018-06-22T03:32:26.593Z,62.24
2018-06-22T03:35:16.793Z,63.14
2018-06-22T03:37:59.795Z,63.07
2018-06-22T03:40:35.926Z,63.34
2018-06-22T03:43:11.044Z,62.82
2018-06-22T03:45:45.955Z,63.27
2018-06-22T03:48:22.160Z,63.41
2018-06-22T03:50:56.342Z,63.13
2018-06-22T03:53:30.811Z,62.76
2018-06-22T03:56:06.585Z,63.16
2018-06-22T03:58:42.272Z,63.70
2018-06-22T04:01:16.774Z,63.60
2018-06-22T04:03:50.062Z,63.51
2018-06-22T04:06:26.551Z,63.25
2018-06-22T04:09:15.290Z,63.41
2018-06-22T04:11:49.842Z,63.46
2018-06-22T04:14:27.760Z,63.17
2018-06-22T04:17:07.280Z,63.42
2018-06-22T04:19:44.795Z,63.54
2018-06-22T04:22:21.966Z,63.24
2018-06-22T04:24:55.311Z,64.08
2018-06-22T04:27:36.101Z,64.02
2018-06-22T04:30:11.599Z,64.68
2018-06-22T04:32:45.458Z,64.78
2018-06-22T04:35:19.868Z,64.37
2018-06-22T04:38:06.157Z,63.67
2018-06-22T04:40:46.624Z,64.12
2018-06-22T04:43:28.880Z,63.85
2018-06-22T04:46:03.652Z,64.23
2018-06-22T04:48:40.135Z,64.63
2018-06-22T04:51:18.766Z,64.33
2018-06-22T04:53:50.099Z,63.84
2018-06-22T04:56:35.320Z,64.59
2018-06-22T04:59:11.974Z,64.52
2018-06-22T05:01:45.724Z,64.62
2018-06-22T05:04:21.846Z,65.01
2018-06-22T05:06:54.881Z,64.44
2018-06-22T05:09:27.046Z,64.12
2018-06-22T05:11:59.936Z,63.71
2018-06-22T05:14:36.285Z,63.77
2018-06-22T05:17:12.999Z,62.70
2018-06-22T05:19:47.731Z,62.19
2018-06-22T05:22:23.966Z,62.68
2018-06-22T05:25:00.288Z,62.63
2018-06-22T05:27:35.849Z,61.23
2018-06-22T05:30:11.314Z,61.84
2018-06-22T05:32:47.832Z,60.90
2018-06-22T05:35:25.418Z,61.34
2018-06-22T05:38:08.662Z,60.89
2018-06-22T05:40:47.638Z,60.27
2018-06-22T05:43:21.177Z,59.44
2018-06-22T05:45:58.479Z,59.04
2018-06-22T05:48:49.281Z,59.48
2018-06-22T05:51:42.874Z,58.39
2018-06-22T05:54:21.106Z,58.43
2018-06-22T05:56:56.609Z,59.23
2018-06-22T05:59:44.518Z,57.80
2018-06-22T06:02:23.371Z,58.68
2018-06-22T06:05:02.713Z,57.40
2018-06-22T06:07:40.435Z,57.15
2018-06-22T06:10:17.856Z,57.58
2018-06-22T06:13:02.244Z,58.26
2018-06-22T06:15:41.722Z,58.32
2018-06-22T06:18:33.431Z,58.14
2018-06-22T06:21:16.578Z,59.26
2018-06-22T06:24:03.273Z,58.74
2018-06-22T06:26:51.066Z,58.26
2018-06-22T06:29:27.332Z,58.94
2018-06-22T06:32:05.382Z,58.64
2018-06-22T06:34:46.101Z,58.47
2018-06-22T06:37:44.794Z,59.84
2018-06-22T06:40:31.439Z,59.33
2018-06-22T06:43:15.735Z,58.59
2018-06-22T06:46:04.636Z,58.04
2018-06-22T06:48:51.639Z,58.84
2018-06-22T06:51:50.065Z,58.37
2018-06-22T06:54:36.291Z,57.80
2018-06-22T06:57:17.020Z,59.28
2018-06-22T06:59:55.219Z,59.33
2018-06-22T07:02:42.959Z,58.33
2018-06-22T07:05:42.368Z,58.53
2018-06-22T07:08:27.086Z,57.85
2018-06-22T07:14:04.894Z,57.72
2018-06-22T07:16:50.428Z,58.25
2018-06-22T07:19:29.997Z,56.76
2018-06-22T07:25:03.430Z,57.86
2018-06-22T07:27:41.806Z,57.70
2018-06-22T07:30:21.421Z,57.96
2018-06-22T07:32:57.220Z,57.63
2018-06-22T07:35:37.106Z,57.55
2018-06-22T07:38:11.327Z,56.70
2018-06-22T07:40:58.422Z,57.27
2018-06-22T07:43:51.601Z,57.53
2018-06-22T07:47:00.257Z,56.67
2018-06-22T07:50:08.804Z,55.58
2018-06-22T07:52:48.906Z,54.64
2018-06-22T07:57:34.309Z,55.62
2018-06-22T08:00:33.231Z,55.95
2018-06-22T08:09:02.279Z,55.69
2018-06-22T08:11:50.604Z,55.26
2018-06-22T08:15:03.132Z,55.76
2018-06-22T08:17:47.124Z,54.40
2018-06-22T08:26:48.278Z,55.01
2018-06-22T08:31:44.885Z,55.01
2018-06-22T08:34:51.788Z,53.85
2018-06-22T08:37:40.260Z,54.51
2018-06-22T08:40:29.622Z,53.37
2018-06-22T08:43:21.874Z,53.67
2018-06-22T08:46:09.786Z,53.43
2018-06-22T08:49:01.107Z,54.09
2018-06-22T08:51:42.166Z,55.50
2018-06-22T08:54:39.546Z,54.90
2018-06-22T08:57:20.589Z,54.29
2018-06-22T09:00:16.183Z,52.97
2018-06-22T09:03:02.947Z,53.85
2018-06-22T09:06:01.698Z,53.72
2018-06-22T09:08:55.640Z,53.36
2018-06-22T09:14:41.720Z,53.18
2018-06-22T09:17:50.493Z,51.96
2018-06-22T09:20:30.199Z,52.29
2018-06-22T09:23:06.197Z,53.20
2018-06-22T09:25:49.530Z,53.03
2018-06-22T09:28:27.875Z,52.00
2018-06-22T09:31:11.428Z,51.09
2018-06-22T09:33:58.507Z,51.09
2018-06-22T09:36:52.392Z,51.56
2018-06-22T09:44:47.650Z,49.86
2018-06-22T09:47:30.005Z,51.10
2018-06-22T09:50:13.553Z,51.33
2018-06-22T09:53:09.305Z,50.69
2018-06-22T09:55:52.992Z,50.40
2018-06-22T09:58:35.733Z,48.93
2018-06-22T10:05:53.363Z,48.85
2018-06-22T10:08:56.471Z,48.39
2018-06-22T10:11:48.445Z,49.53
2018-06-22T10:14:35.797Z,47.52
2018-06-22T10:17:21.792Z,47.64
2018-06-22T10:20:18.923Z,46.25
2018-06-22T10:23:17.805Z,42.66
2018-06-22T10:25:59.578Z,40.83
2018-06-22T10:28:36.334Z,40.68
2018-06-22T10:34:22.409Z,39.55
2018-06-22T10:37:06.149Z,37.77
2018-06-22T10:39:50.062Z,40.07
2018-06-22T10:42:39.852Z,39.67
2018-06-22T10:45:26.909Z,41.51
2018-06-22T10:48:19.081Z,40.80
2018-06-22T10:51:06.049Z,41.56
2018-06-22T10:53:47.846Z,41.07
2018-06-22T10:56:26.296Z,41.96
2018-06-22T10:59:12.283Z,40.36
2018-06-22T11:01:54.636Z,41.09
2018-06-22T11:04:30.957Z,41.97
2018-06-22T11:07:09.498Z,42.64
2018-06-22T11:09:50.320Z,42.70
2018-06-22T11:12:58.866Z,43.75
2018-06-22T11:15:45.380Z,44.00
2018-06-22T11:18:25.824Z,44.09
2018-06-22T11:21:40.876Z,45.04
2018-06-22T11:24:41.038Z,45.25
2018-06-22T11:27:24.107Z,47.95
2018-06-22T11:30:02.656Z,47.33
2018-06-22T11:32:42.679Z,48.49
2018-06-22T11:35:19.490Z,53.65
2018-06-22T11:38:10.562Z,56.74
2018-06-22T11:44:15.664Z,57.95
2018-06-22T11:56:22.457Z,57.06
2018-06-22T12:13:19.487Z,64.40
2018-06-22T12:19:53.341Z,65.26
2018-06-22T12:29:34.255Z,63.85
2018-06-22T12:32:20.131Z,64.18
2018-06-22T12:35:13.008Z,65.95
2018-06-22T12:38:06.071Z,65.58
2018-06-22T12:40:57.780Z,65.89
2018-06-22T12:53:10.225Z,64.02
2018-06-22T12:56:13.931Z,64.05
2018-06-22T12:59:11.324Z,62.26
2018-06-22T13:02:12.598Z,62.15
2018-06-22T13:04:54.049Z,62.76
2018-06-22T13:07:34.145Z,64.12
2018-06-22T13:10:24.123Z,63.16
2018-06-22T13:13:19.398Z,61.79
2018-06-22T13:16:08.706Z,61.54
2018-06-22T13:18:42.980Z,60.91
2018-06-22T13:21:29.213Z,60.69
2018-06-22T13:27:05.742Z,61.27
2018-06-22T13:34:13.650Z,59.62
2018-06-22T13:39:52.637Z,59.17
2018-06-22T13:42:38.829Z,59.08
2018-06-22T13:45:36.279Z,57.31
2018-06-22T13:48:35.543Z,58.05
2018-06-22T13:54:14.428Z,58.01
2018-06-22T13:57:11.901Z,57.72
2018-06-22T14:00:25.528Z,58.68
2018-06-22T14:09:27.047Z,56.69
2018-06-22T14:12:17.063Z,56.74
2018-06-22T14:18:00.694Z,53.09
2018-06-22T14:27:23.252Z,53.92
2018-06-22T14:45:23.710Z,55.83
2018-06-22T14:56:37.479Z,57.22
2018-06-22T15:03:57.167Z,57.48
2018-06-22T15:06:40.809Z,57.38
2018-06-22T15:09:21.209Z,59.29
2018-06-22T15:12:08.731Z,58.71
2018-06-22T15:15:15.678Z,59.05
2018-06-22T15:18:34.489Z,60.49
2018-06-22T15:21:25.175Z,60.89
2018-06-22T15:27:13.083Z,58.44
2018-06-22T15:34:17.412Z,58.91
2018-06-22T15:37:09.705Z,57.86
2018-06-22T16:05:06.419Z,55.91
2018-06-22T16:07:48.608Z,56.84
2018-06-22T16:10:43.628Z,56.73
2018-06-22T16:13:28.300Z,56.59
2018-06-22T16:16:07.543Z,56.85
2018-06-22T16:18:47.205Z,56.58
2018-06-22T16:21:28.569Z,56.92
2018-06-22T16:24:06.398Z,57.35
2018-06-22T16:26:45.351Z,56.10
2018-06-22T16:29:16.478Z,57.06
2018-06-22T16:31:47.401Z,56.33
2018-06-22T16:34:19.196Z,56.22
2018-06-22T16:36:50.711Z,56.24
2018-06-22T16:39:22.292Z,56.31
2018-06-22T16:41:55.689Z,61.00
2018-06-22T16:44:28.945Z,59.53
2018-06-22T16:47:02.710Z,58.46
2018-06-22T16:49:36.646Z,58.63
2018-06-22T16:52:08.089Z,58.69
2018-06-22T16:54:40.758Z,56.21
2018-06-22T16:57:12.854Z,58.49
2018-06-22T16:59:45.480Z,56.70
2018-06-22T17:02:16.918Z,56.32
2018-06-22T17:04:48.638Z,59.25
2018-06-22T17:07:24.708Z,58.97
2018-06-22T17:10:01.568Z,58.06
2018-06-22T17:12:39.896Z,58.97
2018-06-22T17:15:18.980Z,57.95
2018-06-22T17:17:55.533Z,58.84
2018-06-22T17:20:26.823Z,59.64
2018-06-22T17:22:58.859Z,60.08
2018-06-22T17:25:30.398Z,59.53
2018-06-22T17:28:01.714Z,59.71
2018-06-22T17:30:33.334Z,58.16
2018-06-22T17:33:04.602Z,59.97
2018-06-22T17:35:37.731Z,59.75
2018-06-22T17:38:08.797Z,59.81
2018-06-22T17:40:40.126Z,58.31
2018-06-22T17:43:12.608Z,59.90
2018-06-22T17:45:44.424Z,58.61
2018-06-22T17:48:15.940Z,58.52
2018-06-22T17:50:47.476Z,60.19
2018-06-22T17:53:18.546Z,60.37
2018-06-22T17:55:51.803Z,61.70
2018-06-22T17:58:23.048Z,60.88
2018-06-22T18:01:02.553Z,60.83
2018-06-22T18:03:38.637Z,60.24
2018-06-22T18:06:15.378Z,59.75
2018-06-22T18:08:48.938Z,59.99
2018-06-22T18:11:25.796Z,58.31
2018-06-22T18:13:57.324Z,60.25
2018-06-22T18:16:31.365Z,60.20
2018-06-22T18:19:03.231Z,61.16
2018-06-22T18:21:35.162Z,60.54
2018-06-22T18:24:09.980Z,59.53
2018-06-22T18:26:42.123Z,60.90
2018-06-22T18:29:13.651Z,61.96
2018-06-22T18:31:45.767Z,61.81
2018-06-22T18:34:17.098Z,60.23
2018-06-22T18:36:48.247Z,60.28
2018-06-22T18:39:19.170Z,60.04
2018-06-22T18:41:50.226Z,61.19
2018-06-22T18:44:21.707Z,61.94
2018-06-22T18:46:52.916Z,60.72
2018-06-22T18:49:25.773Z,59.93
2018-06-22T18:52:02.680Z,58.83
2018-06-22T18:54:39.238Z,58.76
2018-06-22T18:57:15.192Z,57.75
2018-06-22T18:59:50.399Z,58.38
2018-06-22T19:02:26.295Z,57.74
2018-06-22T19:04:58.928Z,58.23
2018-06-22T19:07:32.316Z,58.39
2018-06-22T19:10:03.670Z,57.35
2018-06-22T19:12:34.498Z,58.08
2018-06-22T19:15:05.395Z,58.30
2018-06-22T19:17:36.807Z,57.75
2018-06-22T19:20:09.240Z,57.85
2018-06-22T19:22:41.788Z,57.09
2018-06-22T19:25:13.271Z,56.75
2018-06-22T19:27:48.375Z,56.29
2018-06-22T19:30:20.039Z,56.58
2018-06-22T19:32:51.932Z,58.35
2018-06-22T19:35:23.845Z,57.96
2018-06-22T19:37:55.609Z,57.77
2018-06-22T19:40:29.714Z,58.62
2018-06-22T19:43:05.362Z,59.77
2018-06-22T19:46:43.165Z,59.38
2018-06-22T19:51:32.795Z,60.73
2018-06-22T19:54:11.777Z,62.21
2018-06-22T19:56:45.231Z,62.29
2018-06-22T19:59:17.949Z,62.51
2018-06-22T20:01:51.960Z,62.33
2018-06-22T20:04:23.561Z,62.84
2018-06-22T20:06:55.694Z,62.86
2018-06-22T20:09:26.633Z,62.95
2018-06-22T20:11:57.096Z,65.61
2018-06-22T20:14:30.499Z,66.88
2018-06-22T20:17:01.528Z,67.93
2018-06-22T20:19:32.924Z,67.25
2018-06-22T20:22:06.194Z,67.45
2018-06-22T20:24:42.134Z,67.49
2018-06-22T20:27:14.648Z,69.15
2018-06-22T20:29:46.167Z,69.49
2018-06-22T20:32:17.962Z,69.44
2018-06-22T20:34:53.967Z,69.06
2018-06-22T20:37:30.397Z,68.45
2018-06-22T20:40:07.721Z,67.88
2018-06-22T20:42:45.517Z,66.06
2018-06-22T20:45:21.070Z,67.75
2018-06-22T20:47:58.468Z,67.55
2018-06-22T20:50:36.960Z,68.41
2018-06-22T20:53:09.659Z,68.81
2018-06-22T20:55:40.697Z,68.47
2018-06-22T20:58:13.153Z,69.26
2018-06-22T21:00:44.757Z,68.63
2018-06-22T21:03:16.327Z,68.16
2018-06-22T21:05:48.042Z,69.06
2018-06-22T21:08:19.920Z,68.57
2018-06-22T21:10:50.605Z,69.25
2018-06-22T21:13:23.010Z,69.26
2018-06-22T21:15:55.198Z,68.53
2018-06-22T21:18:30.214Z,68.57
2018-06-22T21:21:11.360Z,69.52
2018-06-22T21:23:42.728Z,69.43
2018-06-22T21:26:13.395Z,68.70
2018-06-22T21:28:49.961Z,67.66
2018-06-22T21:31:27.066Z,68.75
2018-06-22T21:34:03.217Z,68.95
2018-06-22T21:36:39.392Z,70.63
2018-06-22T21:39:11.940Z,70.15
2018-06-22T21:41:43.530Z,70.52
2018-06-22T21:44:14.497Z,69.79
2018-06-22T21:46:46.025Z,70.62
2018-06-22T21:49:17.260Z,69.23
2018-06-22T21:51:48.224Z,68.63
2018-06-22T21:54:20.835Z,68.33
2018-06-22T21:56:51.746Z,68.29
2018-06-22T21:59:22.959Z,69.25
2018-06-22T22:01:54.589Z,68.09
2018-06-22T22:04:25.199Z,69.25
2018-06-22T22:06:56.454Z,69.93
2018-06-22T22:09:31.296Z,70.07
2018-06-22T22:12:03.818Z,69.49
2018-06-22T22:14:34.902Z,68.68
2018-06-22T22:17:06.705Z,68.65
2018-06-22T22:19:38.864Z,69.59
2018-06-22T22:22:10.041Z,69.08
2018-06-22T22:24:41.259Z,67.44
2018-06-22T22:27:12.917Z,68.39
2018-06-22T22:29:45.105Z,68.12
2018-06-22T22:32:15.597Z,68.37
2018-06-22T22:34:47.848Z,69.19
2018-06-22T22:37:19.478Z,67.42
2018-06-22T22:39:52.900Z,68.56
2018-06-22T22:42:24.176Z,67.93
2018-06-22T22:44:56.277Z,68.58
2018-06-22T22:47:28.297Z,68.91
2018-06-22T22:49:59.750Z,67.89
2018-06-22T22:52:31.593Z,68.63
2018-06-22T22:55:03.225Z,68.53
2018-06-22T22:57:34.232Z,69.58
2018-06-22T23:00:05.502Z,69.02
2018-06-22T23:02:36.561Z,67.04
2018-06-22T23:05:07.424Z,67.77
2018-06-22T23:07:38.057Z,68.37
2018-06-22T23:10:13.398Z,68.08
2018-06-22T23:12:45.209Z,67.55
2018-06-22T23:15:16.553Z,67.46
2018-06-22T23:17:47.535Z,67.35
2018-06-22T23:20:18.126Z,66.81
2018-06-22T23:22:59.736Z,66.55
2018-06-22T23:25:30.773Z,66.45
2018-06-22T23:28:02.923Z,66.77
2018-06-22T23:30:34.218Z,67.98
2018-06-22T23:33:05.760Z,67.61
2018-06-22T23:35:37.125Z,68.79
2018-06-22T23:38:09.833Z,68.77
2018-06-22T23:40:41.355Z,67.29
2018-06-22T23:43:12.434Z,68.55
2018-06-22T23:45:44.272Z,69.73
2018-06-22T23:48:18.019Z,69.71
2018-06-22T23:50:49.600Z,67.82
2018-06-22T23:53:21.738Z,68.83
2018-06-22T23:55:54.550Z,68.41
2018-06-22T23:58:25.435Z,66.20
